sensor_id;sensor_type;location;lat;lon;timestamp;pressure;altitude;pressure_sealevel;temperature;humidity
50684;BME280;36654;45.042;38.994;2023-01-06T00:00:31;100471.88;;;9.21;70.90
50684;BME280;36654;45.042;38.994;2023-01-06T00:02:57;100509.91;;;9.33;70.85
50684;BME280;36654;45.042;38.994;2023-01-06T00:05:23;100518.81;;;9.41;71.31
50684;BME280;36654;45.042;38.994;2023-01-06T00:07:49;100516.13;;;9.36;71.32
50684;BME280;36654;45.042;38.994;2023-01-06T00:10:15;100507.34;;;9.40;71.79
50684;BME280;36654;45.042;38.994;2023-01-06T00:12:45;100454.09;;;9.11;71.81
50684;BME280;36654;45.042;38.994;2023-01-06T00:15:12;100520.59;;;9.39;72.30
50684;BME280;36654;45.042;38.994;2023-01-06T00:17:38;100508.22;;;9.41;72.36
50684;BME280;36654;45.042;38.994;2023-01-06T00:20:04;100508.28;;;9.44;72.40
50684;BME280;36654;45.042;38.994;2023-01-06T00:22:29;100530.31;;;9.43;72.86
50684;BME280;36654;45.042;38.994;2023-01-06T00:24:55;100538.22;;;9.40;73.29
50684;BME280;36654;45.042;38.994;2023-01-06T00:27:21;100530.22;;;9.35;73.55
50684;BME280;36654;45.042;38.994;2023-01-06T00:29:46;100513.22;;;9.16;73.58
50684;BME280;36654;45.042;38.994;2023-01-06T00:32:14;100512.41;;;9.22;73.96
50684;BME280;36654;45.042;38.994;2023-01-06T00:34:40;100536.34;;;9.33;74.13
50684;BME280;36654;45.042;38.994;2023-01-06T00:37:05;100542.53;;;9.32;74.36
50684;BME280;36654;45.042;38.994;2023-01-06T00:39:31;100546.00;;;9.27;74.83
50684;BME280;36654;45.042;38.994;2023-01-06T00:41:56;100503.59;;;9.21;75.61
50684;BME280;36654;45.042;38.994;2023-01-06T00:44:32;100478.47;;;8.87;76.47
50684;BME280;36654;45.042;38.994;2023-01-06T00:46:58;100518.34;;;9.04;77.17
50684;BME280;36654;45.042;38.994;2023-01-06T00:49:24;100549.25;;;9.08;77.87
50684;BME280;36654;45.042;38.994;2023-01-06T00:51:50;100539.44;;;9.01;78.48
50684;BME280;36654;45.042;38.994;2023-01-06T00:54:16;100536.72;;;8.95;79.35
50684;BME280;36654;45.042;38.994;2023-01-06T00:56:47;100528.59;;;8.82;80.17
50684;BME280;36654;45.042;38.994;2023-01-06T00:59:15;100547.16;;;8.84;81.15
50684;BME280;36654;45.042;38.994;2023-01-06T01:01:42;100544.44;;;8.79;82.18
50684;BME280;36654;45.042;38.994;2023-01-06T01:04:09;100553.09;;;8.71;82.91
50684;BME280;36654;45.042;38.994;2023-01-06T01:06:35;100525.75;;;8.67;83.71
50684;BME280;36654;45.042;38.994;2023-01-06T01:09:02;100510.25;;;8.38;84.38
50684;BME280;36654;45.042;38.994;2023-01-06T01:11:28;100544.06;;;8.58;85.02
50684;BME280;36654;45.042;38.994;2023-01-06T01:14:15;100543.13;;;8.53;85.40
50684;BME280;36654;45.042;38.994;2023-01-06T01:16:41;100538.59;;;8.46;86.11
50684;BME280;36654;45.042;38.994;2023-01-06T01:19:07;100495.09;;;8.25;86.31
50684;BME280;36654;45.042;38.994;2023-01-06T01:21:32;100483.50;;;8.18;86.66
50684;BME280;36654;45.042;38.994;2023-01-06T01:23:58;100529.81;;;8.47;86.87
50684;BME280;36654;45.042;38.994;2023-01-06T01:26:24;100531.53;;;8.45;87.18
50684;BME280;36654;45.042;38.994;2023-01-06T01:28:50;100519.00;;;8.34;87.47
50684;BME280;36654;45.042;38.994;2023-01-06T01:31:16;100487.97;;;8.21;87.78
50684;BME280;36654;45.042;38.994;2023-01-06T01:33:41;100513.84;;;8.40;88.07
50684;BME280;36654;45.042;38.994;2023-01-06T01:36:09;100534.91;;;8.37;88.08
50684;BME280;36654;45.042;38.994;2023-01-06T01:38:35;100518.19;;;8.37;88.45
50684;BME280;36654;45.042;38.994;2023-01-06T01:41:01;100527.78;;;8.33;88.75
50684;BME280;36654;45.042;38.994;2023-01-06T01:43:48;100524.22;;;8.30;89.17
50684;BME280;36654;45.042;38.994;2023-01-06T01:46:22;100529.47;;;8.28;89.46
50684;BME280;36654;45.042;38.994;2023-01-06T01:48:50;100521.56;;;8.30;89.48
50684;BME280;36654;45.042;38.994;2023-01-06T01:51:19;100487.69;;;8.06;89.75
50684;BME280;36654;45.042;38.994;2023-01-06T01:53:50;100533.84;;;8.28;89.71
50684;BME280;36654;45.042;38.994;2023-01-06T01:56:29;100511.72;;;8.21;89.99
50684;BME280;36654;45.042;38.994;2023-01-06T01:59:09;100508.06;;;8.13;90.48
50684;BME280;36654;45.042;38.994;2023-01-06T02:01:36;100524.09;;;8.22;90.68
50684;BME280;36654;45.042;38.994;2023-01-06T02:04:02;100539.94;;;8.22;90.71
50684;BME280;36654;45.042;38.994;2023-01-06T02:06:29;100498.97;;;7.95;91.14
50684;BME280;36654;45.042;38.994;2023-01-06T02:09:00;100522.91;;;8.06;91.91
50684;BME280;36654;45.042;38.994;2023-01-06T02:11:30;100530.78;;;8.02;92.24
50684;BME280;36654;45.042;38.994;2023-01-06T02:14:23;100483.13;;;7.95;92.74
50684;BME280;36654;45.042;38.994;2023-01-06T02:29:04;100465.41;;;7.88;94.46
50684;BME280;36654;45.042;38.994;2023-01-06T02:39:38;100477.63;;;7.83;95.46
50684;BME280;36654;45.042;38.994;2023-01-06T02:50:51;100431.56;;;7.66;95.69
50684;BME280;36654;45.042;38.994;2023-01-06T02:53:28;100455.44;;;7.73;95.30
50684;BME280;36654;45.042;38.994;2023-01-06T02:55:56;100468.91;;;7.87;95.04
50684;BME280;36654;45.042;38.994;2023-01-06T02:58:46;100474.19;;;7.87;95.32
50684;BME280;36654;45.042;38.994;2023-01-06T03:01:21;100474.13;;;7.84;94.86
50684;BME280;36654;45.042;38.994;2023-01-06T03:03:50;100472.47;;;7.89;94.66
50684;BME280;36654;45.042;38.994;2023-01-06T03:06:18;100473.41;;;7.93;94.89
50684;BME280;36654;45.042;38.994;2023-01-06T03:08:47;100429.97;;;7.74;94.19
50684;BME280;36654;45.042;38.994;2023-01-06T03:11:14;100429.91;;;7.71;93.94
50684;BME280;36654;45.042;38.994;2023-01-06T03:13:57;100447.84;;;7.90;93.08
50684;BME280;36654;45.042;38.994;2023-01-06T03:16:23;100432.88;;;7.91;92.80
50684;BME280;36654;45.042;38.994;2023-01-06T03:18:51;100460.19;;;7.91;92.10
50684;BME280;36654;45.042;38.994;2023-01-06T03:21:21;100429.38;;;7.90;92.03
50684;BME280;36654;45.042;38.994;2023-01-06T03:23:48;100441.00;;;8.02;90.95
50684;BME280;36654;45.042;38.994;2023-01-06T03:26:13;100471.84;;;8.06;90.81
50684;BME280;36654;45.042;38.994;2023-01-06T03:28:39;100447.19;;;8.02;90.19
50684;BME280;36654;45.042;38.994;2023-01-06T03:42:01;100452.63;;;8.13;89.61
50684;BME280;36654;45.042;38.994;2023-01-06T03:47:34;100436.66;;;8.05;88.16
50684;BME280;36654;45.042;38.994;2023-01-06T03:50:18;100419.78;;;7.95;88.01
50684;BME280;36654;45.042;38.994;2023-01-06T03:52:54;100457.16;;;8.20;87.39
50684;BME280;36654;45.042;38.994;2023-01-06T03:55:24;100471.28;;;8.22;86.55
50684;BME280;36654;45.042;38.994;2023-01-06T03:57:56;100480.94;;;8.23;86.03
50684;BME280;36654;45.042;38.994;2023-01-06T04:00:26;100447.47;;;8.19;86.38
50684;BME280;36654;45.042;38.994;2023-01-06T04:02:54;100467.75;;;8.23;86.12
50684;BME280;36654;45.042;38.994;2023-01-06T04:05:22;100467.72;;;8.20;85.67
50684;BME280;36654;45.042;38.994;2023-01-06T04:07:49;100461.63;;;8.24;85.62
50684;BME280;36654;45.042;38.994;2023-01-06T04:10:16;100476.59;;;8.25;85.44
50684;BME280;36654;45.042;38.994;2023-01-06T04:12:43;100498.59;;;8.24;85.45
50684;BME280;36654;45.042;38.994;2023-01-06T04:15:11;100489.84;;;8.27;84.92
50684;BME280;36654;45.042;38.994;2023-01-06T04:17:39;100499.47;;;8.26;84.88
50684;BME280;36654;45.042;38.994;2023-01-06T04:20:07;100503.03;;;8.27;84.53
50684;BME280;36654;45.042;38.994;2023-01-06T04:22:33;100522.41;;;8.27;85.33
50684;BME280;36654;45.042;38.994;2023-01-06T04:24:59;100502.06;;;8.21;85.93
50684;BME280;36654;45.042;38.994;2023-01-06T04:27:25;100525.91;;;8.26;85.88
50684;BME280;36654;45.042;38.994;2023-01-06T04:29:50;100475.25;;;7.98;85.88
50684;BME280;36654;45.042;38.994;2023-01-06T04:32:16;100542.69;;;8.30;86.52
50684;BME280;36654;45.042;38.994;2023-01-06T04:34:42;100548.81;;;8.27;86.74
50684;BME280;36654;45.042;38.994;2023-01-06T04:37:07;100558.50;;;8.27;87.46
50684;BME280;36654;45.042;38.994;2023-01-06T04:39:33;100562.88;;;8.26;87.69
50684;BME280;36654;45.042;38.994;2023-01-06T04:41:58;100566.28;;;8.19;87.69
50684;BME280;36654;45.042;38.994;2023-01-06T04:44:24;100541.25;;;7.98;88.55
50684;BME280;36654;45.042;38.994;2023-01-06T04:46:49;100520.91;;;7.91;89.21
50684;BME280;36654;45.042;38.994;2023-01-06T04:49:15;100565.22;;;8.09;89.70
50684;BME280;36654;45.042;38.994;2023-01-06T04:51:41;100560.59;;;7.97;90.11
50684;BME280;36654;45.042;38.994;2023-01-06T04:54:06;100573.75;;;7.94;90.63
50684;BME280;36654;45.042;38.994;2023-01-06T04:56:32;100578.97;;;7.91;90.96
50684;BME280;36654;45.042;38.994;2023-01-06T04:58:58;100557.53;;;7.76;91.55
50684;BME280;36654;45.042;38.994;2023-01-06T05:01:24;100581.47;;;7.85;92.07
50684;BME280;36654;45.042;38.994;2023-01-06T05:03:50;100562.91;;;7.81;92.41
50684;BME280;36654;45.042;38.994;2023-01-06T05:06:17;100562.91;;;7.79;92.93
50684;BME280;36654;45.042;38.994;2023-01-06T05:08:43;100561.91;;;7.74;93.04
50684;BME280;36654;45.042;38.994;2023-01-06T05:11:15;100547.81;;;7.72;93.54
50684;BME280;36654;45.042;38.994;2023-01-06T05:13:41;100543.38;;;7.71;93.84
50684;BME280;36654;45.042;38.994;2023-01-06T05:16:10;100552.19;;;7.71;94.51
50684;BME280;36654;45.042;38.994;2023-01-06T05:18:36;100546.00;;;7.71;94.80
50684;BME280;36654;45.042;38.994;2023-01-06T05:21:02;100496.31;;;7.48;94.98
50684;BME280;36654;45.042;38.994;2023-01-06T05:23:28;100541.47;;;7.64;95.32
50684;BME280;36654;45.042;38.994;2023-01-06T05:25:54;100545.94;;;7.66;95.75
50684;BME280;36654;45.042;38.994;2023-01-06T05:28:20;100552.97;;;7.67;96.13
50684;BME280;36654;45.042;38.994;2023-01-06T05:30:46;100517.34;;;7.45;96.45
50684;BME280;36654;45.042;38.994;2023-01-06T05:33:12;100529.88;;;7.55;96.52
50684;BME280;36654;45.042;38.994;2023-01-06T05:35:37;100559.94;;;7.64;96.76
50684;BME280;36654;45.042;38.994;2023-01-06T05:38:03;100559.88;;;7.61;96.83
50684;BME280;36654;45.042;38.994;2023-01-06T05:40:29;100551.81;;;7.53;97.27
50684;BME280;36654;45.042;38.994;2023-01-06T05:42:55;100580.03;;;7.57;97.58
50684;BME280;36654;45.042;38.994;2023-01-06T05:45:22;100578.16;;;7.51;97.72
50684;BME280;36654;45.042;38.994;2023-01-06T05:47:48;100582.56;;;7.52;98.09
50684;BME280;36654;45.042;38.994;2023-01-06T05:50:13;100582.56;;;7.52;98.33
50684;BME280;36654;45.042;38.994;2023-01-06T05:52:39;100543.34;;;7.27;98.69
50684;BME280;36654;45.042;38.994;2023-01-06T05:55:05;100578.22;;;7.54;98.95
50684;BME280;36654;45.042;38.994;2023-01-06T05:57:32;100590.44;;;7.49;99.18
50684;BME280;36654;45.042;38.994;2023-01-06T05:59:57;100585.22;;;7.52;99.61
50684;BME280;36654;45.042;38.994;2023-01-06T06:02:23;100534.56;;;7.26;99.82
50684;BME280;36654;45.042;38.994;2023-01-06T06:04:49;100576.34;;;7.49;100.00
50684;BME280;36654;45.042;38.994;2023-01-06T06:07:15;100575.44;;;7.48;100.00
50684;BME280;36654;45.042;38.994;2023-01-06T06:09:41;100586.09;;;7.53;100.00
50684;BME280;36654;45.042;38.994;2023-01-06T06:12:07;100552.53;;;7.44;100.00
50684;BME280;36654;45.042;38.994;2023-01-06T06:14:32;100574.63;;;7.51;100.00
50684;BME280;36654;45.042;38.994;2023-01-06T06:16:58;100589.59;;;7.52;100.00
50684;BME280;36654;45.042;38.994;2023-01-06T06:19:24;100589.56;;;7.50;100.00
50684;BME280;36654;45.042;38.994;2023-01-06T06:21:49;100582.50;;;7.49;100.00
50684;BME280;36654;45.042;38.994;2023-01-06T06:24:16;100603.63;;;7.51;100.00
50684;BME280;36654;45.042;38.994;2023-01-06T06:26:42;100586.91;;;7.50;100.00
50684;BME280;36654;45.042;38.994;2023-01-06T06:29:08;100593.13;;;7.52;100.00
50684;BME280;36654;45.042;38.994;2023-01-06T06:31:33;100594.97;;;7.56;100.00
50684;BME280;36654;45.042;38.994;2023-01-06T06:34:00;100588.72;;;7.53;100.00
50684;BME280;36654;45.042;38.994;2023-01-06T06:36:27;100594.97;;;7.56;100.00
50684;BME280;36654;45.042;38.994;2023-01-06T06:38:53;100592.34;;;7.56;100.00
50684;BME280;36654;45.042;38.994;2023-01-06T06:41:20;100571.75;;;7.40;100.00
50684;BME280;36654;45.042;38.994;2023-01-06T06:43:47;100588.84;;;7.57;100.00
50684;BME280;36654;45.042;38.994;2023-01-06T06:46:13;100588.78;;;7.56;100.00
50684;BME280;36654;45.042;38.994;2023-01-06T06:48:39;100594.06;;;7.54;100.00
50684;BME280;36654;45.042;38.994;2023-01-06T06:51:08;100596.81;;;7.61;100.00
50684;BME280;36654;45.042;38.994;2023-01-06T06:53:34;100590.59;;;7.57;100.00
50684;BME280;36654;45.042;38.994;2023-01-06T06:56:01;100587.91;;;7.55;100.00
50684;BME280;36654;45.042;38.994;2023-01-06T06:58:27;100588.88;;;7.59;100.00
50684;BME280;36654;45.042;38.994;2023-01-06T07:00:53;100609.84;;;7.53;100.00
50684;BME280;36654;45.042;38.994;2023-01-06T07:03:18;100614.28;;;7.55;100.00
50684;BME280;36654;45.042;38.994;2023-01-06T07:05:46;100600.16;;;7.53;100.00
50684;BME280;36654;45.042;38.994;2023-01-06T07:08:12;100615.94;;;7.50;100.00
50684;BME280;36654;45.042;38.994;2023-01-06T07:10:38;100612.31;;;7.45;100.00
50684;BME280;36654;45.042;38.994;2023-01-06T07:13:04;100612.38;;;7.48;100.00
50684;BME280;36654;45.042;38.994;2023-01-06T07:15:30;100575.13;;;7.33;100.00
50684;BME280;36654;45.042;38.994;2023-01-06T07:18:01;100616.09;;;7.56;100.00
50684;BME280;36654;45.042;38.994;2023-01-06T07:20:28;100624.84;;;7.55;100.00
50684;BME280;36654;45.042;38.994;2023-01-06T07:22:53;100604.34;;;7.42;100.00
50684;BME280;36654;45.042;38.994;2023-01-06T07:25:19;100617.75;;;7.51;100.00
50684;BME280;36654;45.042;38.994;2023-01-06T07:27:45;100615.94;;;7.50;100.00
50684;BME280;36654;45.042;38.994;2023-01-06T07:30:11;100608.91;;;7.49;100.00
50684;BME280;36654;45.042;38.994;2023-01-06T07:32:37;100614.22;;;7.52;100.00
50684;BME280;36654;45.042;38.994;2023-01-06T07:35:03;100621.38;;;7.56;100.00
50684;BME280;36654;45.042;38.994;2023-01-06T07:37:28;100614.22;;;7.52;100.00
50684;BME280;36654;45.042;38.994;2023-01-06T07:39:54;100626.63;;;7.56;100.00
50684;BME280;36654;45.042;38.994;2023-01-06T07:42:20;100623.03;;;7.53;100.00
50684;BME280;36654;45.042;38.994;2023-01-06T07:44:45;100613.44;;;7.56;100.00
50684;BME280;36654;45.042;38.994;2023-01-06T07:47:11;100623.13;;;7.57;100.00
50684;BME280;36654;45.042;38.994;2023-01-06T07:49:36;100617.91;;;7.61;100.00
50684;BME280;36654;45.042;38.994;2023-01-06T07:52:02;100628.47;;;7.61;100.00
50684;BME280;36654;45.042;38.994;2023-01-06T07:54:28;100587.59;;;7.40;100.00
50684;BME280;36654;45.042;38.994;2023-01-06T07:56:53;100624.91;;;7.59;100.00
50684;BME280;36654;45.042;38.994;2023-01-06T07:59:19;100631.09;;;7.59;100.00
50684;BME280;36654;45.042;38.994;2023-01-06T08:01:45;100616.97;;;7.59;100.00
50684;BME280;36654;45.042;38.994;2023-01-06T08:04:10;100627.72;;;7.66;100.00
50684;BME280;36654;45.042;38.994;2023-01-06T08:06:38;100632.09;;;7.66;100.00
50684;BME280;36654;45.042;38.994;2023-01-06T08:09:04;100644.44;;;7.67;100.00
50684;BME280;36654;45.042;38.994;2023-01-06T08:11:30;100646.22;;;7.68;100.00
50684;BME280;36654;45.042;38.994;2023-01-06T08:13:56;100632.09;;;7.66;100.00
50684;BME280;36654;45.042;38.994;2023-01-06T08:16:21;100642.78;;;7.72;100.00
50684;BME280;36654;45.042;38.994;2023-01-06T08:18:47;100648.84;;;7.68;100.00
50684;BME280;36654;45.042;38.994;2023-01-06T08:21:12;100644.56;;;7.73;100.00
50684;BME280;36654;45.042;38.994;2023-01-06T08:23:38;100632.09;;;7.66;100.00
50684;BME280;36654;45.042;38.994;2023-01-06T08:26:12;100646.28;;;7.71;100.00
50684;BME280;36654;45.042;38.994;2023-01-06T08:28:39;100641.00;;;7.71;100.00
50684;BME280;36654;45.042;38.994;2023-01-06T08:31:13;100630.44;;;7.71;100.00
50684;BME280;36654;45.042;38.994;2023-01-06T08:33:39;100628.72;;;7.73;100.00
50684;BME280;36654;45.042;38.994;2023-01-06T08:36:07;100627.06;;;7.78;100.00
50684;BME280;36654;45.042;38.994;2023-01-06T08:38:35;100618.22;;;7.76;100.00
50684;BME280;36654;45.042;38.994;2023-01-06T08:41:01;100628.88;;;7.81;100.00
50684;BME280;36654;45.042;38.994;2023-01-06T08:43:27;100603.22;;;7.73;100.00
50684;BME280;36654;45.042;38.994;2023-01-06T08:45:58;100611.25;;;7.78;100.00
50684;BME280;36654;45.042;38.994;2023-01-06T08:48:23;100595.16;;;7.66;100.00
50684;BME280;36654;45.042;38.994;2023-01-06T08:53:17;100604.38;;;7.86;100.00
50684;BME280;36654;45.042;38.994;2023-01-06T08:55:43;100616.75;;;7.89;100.00
50684;BME280;36654;45.042;38.994;2023-01-06T08:58:09;100606.22;;;7.90;100.00
50684;BME280;36654;45.042;38.994;2023-01-06T09:00:38;100603.63;;;7.92;100.00
50684;BME280;36654;45.042;38.994;2023-01-06T09:03:04;100597.50;;;7.94;100.00
50684;BME280;36654;45.042;38.994;2023-01-06T09:05:30;100559.34;;;7.77;100.00
50684;BME280;36654;45.042;38.994;2023-01-06T09:07:55;100605.47;;;7.97;100.00
50684;BME280;36654;45.042;38.994;2023-01-06T09:10:21;100594.97;;;7.99;100.00
50684;BME280;36654;45.042;38.994;2023-01-06T09:12:47;100611.72;;;8.03;100.00
50684;BME280;36654;45.042;38.994;2023-01-06T09:15:13;100590.50;;;7.96;100.00
50684;BME280;36654;45.042;38.994;2023-01-06T09:17:39;100563.78;;;7.81;100.00
50684;BME280;36654;45.042;38.994;2023-01-06T09:20:05;100600.34;;;8.05;100.00
50684;BME280;36654;45.042;38.994;2023-01-06T09:22:31;100597.69;;;8.05;100.00
50684;BME280;36654;45.042;38.994;2023-01-06T09:24:57;100580.84;;;7.98;100.00
50684;BME280;36654;45.042;38.994;2023-01-06T09:27:22;100549.75;;;7.82;100.00
50684;BME280;36654;45.042;38.994;2023-01-06T09:29:48;100583.56;;;8.02;100.00
50684;BME280;36654;45.042;38.994;2023-01-06T09:32:14;100579.19;;;8.04;100.00
50684;BME280;36654;45.042;38.994;2023-01-06T09:34:40;100553.47;;;7.92;100.00
50684;BME280;36654;45.042;38.994;2023-01-06T09:37:06;100586.34;;;8.11;100.00
50684;BME280;36654;45.042;38.994;2023-01-06T09:39:32;100591.78;;;8.17;100.00
50684;BME280;36654;45.042;38.994;2023-01-06T09:44:32;100540.31;;;7.95;100.00
50684;BME280;36654;45.042;38.994;2023-01-06T09:47:00;100573.28;;;8.18;100.00
50684;BME280;36654;45.042;38.994;2023-01-06T09:52:30;100585.84;;;8.30;100.00
50684;BME280;36654;45.042;38.994;2023-01-06T09:55:03;100589.44;;;8.34;100.00
50684;BME280;36654;45.042;38.994;2023-01-06T09:57:36;100553.78;;;8.10;100.00
50684;BME280;36654;45.042;38.994;2023-01-06T10:00:48;100584.16;;;8.35;100.00
50684;BME280;36654;45.042;38.994;2023-01-06T10:02:53;100586.81;;;8.35;99.88
50684;BME280;36654;45.042;38.994;2023-01-06T10:05:47;100588.56;;;8.35;100.00
50684;BME280;36654;45.042;38.994;2023-01-06T10:11:10;100591.16;;;8.33;100.00
50684;BME280;36654;45.042;38.994;2023-01-06T10:16:46;100590.16;;;8.25;99.79
50684;BME280;36654;45.042;38.994;2023-01-06T10:22:16;100580.47;;;8.24;99.86
50684;BME280;36654;45.042;38.994;2023-01-06T10:27:41;100577.81;;;8.24;99.86
50684;BME280;36654;45.042;38.994;2023-01-06T10:30:24;100583.16;;;8.27;100.00
50684;BME280;36654;45.042;38.994;2023-01-06T10:32:52;100578.72;;;8.26;100.00
50684;BME280;36654;45.042;38.994;2023-01-06T10:35:21;100590.28;;;8.31;100.00
50684;BME280;36654;45.042;38.994;2023-01-06T10:37:50;100580.56;;;8.30;100.00
50684;BME280;36654;45.042;38.994;2023-01-06T10:40:22;100572.59;;;8.27;100.00
50684;BME280;36654;45.042;38.994;2023-01-06T10:42:50;100587.56;;;8.28;100.00
50684;BME280;36654;45.042;38.994;2023-01-06T10:47:59;100577.78;;;8.23;100.00
50684;BME280;36654;45.042;38.994;2023-01-06T10:50:26;100559.13;;;8.12;99.89
50684;BME280;36654;45.042;38.994;2023-01-06T10:52:52;100557.31;;;8.11;99.80
50684;BME280;36654;45.042;38.994;2023-01-06T10:58:01;100560.94;;;8.16;99.46
50684;BME280;36654;45.042;38.994;2023-01-06T11:00:29;100560.03;;;8.15;99.83
50684;BME280;36654;45.042;38.994;2023-01-06T11:03:03;100518.31;;;7.94;99.13
50684;BME280;36654;45.042;38.994;2023-01-06T11:05:31;100573.38;;;8.23;99.03
50684;BME280;36654;45.042;38.994;2023-01-06T11:10:30;100566.44;;;8.28;98.93
50684;BME280;36654;45.042;38.994;2023-01-06T11:12:59;100529.09;;;8.07;98.32
50684;BME280;36654;45.042;38.994;2023-01-06T11:15:37;100577.91;;;8.30;98.49
50684;BME280;36654;45.042;38.994;2023-01-06T11:18:05;100578.88;;;8.35;98.49
50684;BME280;36654;45.042;38.994;2023-01-06T11:20:41;100570.19;;;8.39;98.45
50684;BME280;36654;45.042;38.994;2023-01-06T11:23:20;100569.25;;;8.37;97.81
50684;BME280;36654;45.042;38.994;2023-01-06T11:28:25;100571.97;;;8.40;97.33
50684;BME280;36654;45.042;38.994;2023-01-06T11:30:54;100557.00;;;8.41;96.90
50684;BME280;36654;45.042;38.994;2023-01-06T11:33:24;100560.50;;;8.40;96.66
50684;BME280;36654;45.042;38.994;2023-01-06T11:35:51;100555.28;;;8.43;96.78
50684;BME280;36654;45.042;38.994;2023-01-06T11:38:19;100550.72;;;8.34;96.43
50684;BME280;36654;45.042;38.994;2023-01-06T11:40:52;100539.25;;;8.35;96.20
50684;BME280;36654;45.042;38.994;2023-01-06T11:43:28;100538.44;;;8.36;96.18
50684;BME280;36654;45.042;38.994;2023-01-06T11:51:13;100546.59;;;8.50;96.00
50684;BME280;36654;45.042;38.994;2023-01-06T11:53:54;100542.28;;;8.54;95.25
50684;BME280;36654;45.042;38.994;2023-01-06T11:56:20;100527.13;;;8.45;94.57
50684;BME280;36654;45.042;38.994;2023-01-06T12:04:16;100442.59;;;7.93;93.98
50684;BME280;36654;45.042;38.994;2023-01-06T12:06:44;100552.00;;;8.58;94.01
50684;BME280;36654;45.042;38.994;2023-01-06T12:09:17;100552.88;;;8.57;93.78
50684;BME280;36654;45.042;38.994;2023-01-06T12:14:14;100548.34;;;8.50;92.60
50684;BME280;36654;45.042;38.994;2023-01-06T12:19:17;100572.22;;;8.56;93.03
50684;BME280;36654;45.042;38.994;2023-01-06T12:21:44;100570.47;;;8.55;93.45
50684;BME280;36654;45.042;38.994;2023-01-06T12:24:13;100572.22;;;8.56;93.83
50684;BME280;36654;45.042;38.994;2023-01-06T12:26:42;100581.06;;;8.58;93.69
50684;BME280;36654;45.042;38.994;2023-01-06T12:29:13;100566.91;;;8.53;94.06
50684;BME280;36654;45.042;38.994;2023-01-06T12:32:06;100573.19;;;8.59;94.09
50684;BME280;36654;45.042;38.994;2023-01-06T12:34:40;100578.47;;;8.59;94.19
50684;BME280;36654;45.042;38.994;2023-01-06T12:40:03;100579.34;;;8.60;94.14
50684;BME280;36654;45.042;38.994;2023-01-06T12:42:49;100574.94;;;8.59;94.19
50684;BME280;36654;45.042;38.994;2023-01-06T12:45:27;100582.88;;;8.59;94.43
50684;BME280;36654;45.042;38.994;2023-01-06T12:47:56;100561.28;;;8.34;94.64
50684;BME280;36654;45.042;38.994;2023-01-06T12:50:42;100606.56;;;8.54;94.78
50684;BME280;36654;45.042;38.994;2023-01-06T13:01:52;100611.75;;;8.50;96.33
50684;BME280;36654;45.042;38.994;2023-01-06T13:04:47;100613.53;;;8.51;96.30
50684;BME280;36654;45.042;38.994;2023-01-06T13:13:52;100627.53;;;8.45;96.72
50684;BME280;36654;45.042;38.994;2023-01-06T13:16:41;100631.94;;;8.45;96.71
50684;BME280;36654;45.042;38.994;2023-01-06T13:19:18;100634.47;;;8.40;96.25
50684;BME280;36654;45.042;38.994;2023-01-06T13:21:47;100629.19;;;8.40;96.12
50684;BME280;36654;45.042;38.994;2023-01-06T13:29:43;100637.00;;;8.35;96.20
50684;BME280;36654;45.042;38.994;2023-01-06T13:37:59;100661.69;;;8.37;95.53
50684;BME280;36654;45.042;38.994;2023-01-06T13:40:31;100667.94;;;8.41;95.27
50684;BME280;36654;45.042;38.994;2023-01-06T13:43:22;100656.53;;;8.43;95.12
50684;BME280;36654;45.042;38.994;2023-01-06T13:45:53;100674.19;;;8.45;95.08
50684;BME280;36654;45.042;38.994;2023-01-06T13:48:26;100667.19;;;8.47;94.59
50684;BME280;36654;45.042;38.994;2023-01-06T13:50:54;100665.41;;;8.44;94.38
50684;BME280;36654;45.042;38.994;2023-01-06T13:53:22;100661.97;;;8.50;94.64
50684;BME280;36654;45.042;38.994;2023-01-06T13:58:43;100663.72;;;8.51;94.73
50684;BME280;36654;45.042;38.994;2023-01-06T14:03:46;100663.69;;;8.48;94.48
50684;BME280;36654;45.042;38.994;2023-01-06T14:06:42;100643.16;;;8.36;93.91
50684;BME280;36654;45.042;38.994;2023-01-06T14:09:15;100637.78;;;8.30;93.54
50684;BME280;36654;45.042;38.994;2023-01-06T14:11:42;100683.94;;;8.47;93.01
50684;BME280;36654;45.042;38.994;2023-01-06T14:14:35;100669.75;;;8.43;91.94
50684;BME280;36654;45.042;38.994;2023-01-06T14:17:03;100678.50;;;8.41;91.23
50684;BME280;36654;45.042;38.994;2023-01-06T14:19:32;100656.00;;;8.16;90.59
50684;BME280;36654;45.042;38.994;2023-01-06T14:22:18;100707.41;;;8.33;89.28
50684;BME280;36654;45.042;38.994;2023-01-06T14:25:00;100654.84;;;8.03;88.49
50684;BME280;36654;45.042;38.994;2023-01-06T14:30:25;100693.03;;;8.19;87.24
50684;BME280;36654;45.042;38.994;2023-01-06T14:32:59;100694.81;;;8.20;87.50
50684;BME280;36654;45.042;38.994;2023-01-06T14:35:29;100694.75;;;8.17;87.40
50684;BME280;36654;45.042;38.994;2023-01-06T14:38:02;100707.03;;;8.15;87.75
50684;BME280;36654;45.042;38.994;2023-01-06T14:40:32;100701.69;;;8.12;87.79
50684;BME280;36654;45.042;38.994;2023-01-06T14:43:04;100703.41;;;8.10;87.05
50684;BME280;36654;45.042;38.994;2023-01-06T14:45:38;100715.63;;;8.05;86.46
50684;BME280;36654;45.042;38.994;2023-01-06T14:48:26;100725.31;;;8.06;86.80
50684;BME280;36654;45.042;38.994;2023-01-06T14:50:54;100727.84;;;7.99;86.56
50684;BME280;36654;45.042;38.994;2023-01-06T14:53:34;100715.41;;;7.95;86.27
50684;BME280;36654;45.042;38.994;2023-01-06T14:56:02;100726.84;;;7.94;85.57
50684;BME280;36654;45.042;38.994;2023-01-06T14:58:35;100720.53;;;7.86;85.34
50684;BME280;36654;45.042;38.994;2023-01-06T15:01:32;100719.75;;;7.92;85.97
50684;BME280;36654;45.042;38.994;2023-01-06T15:04:00;100722.13;;;7.81;85.73